createdAt,value
2022-11-25T00:01:33.566Z,7.43
2022-11-25T00:04:03.345Z,7.37
2022-11-25T00:06:33.091Z,9.07
2022-11-25T00:09:04.154Z,7.17
2022-11-25T00:11:32.324Z,8.30
2022-11-25T00:14:00.761Z,9.60
2022-11-25T00:16:30.564Z,15.70
2022-11-25T00:18:59.675Z,16.40
2022-11-25T00:21:32.951Z,10.53
2022-11-25T00:24:02.629Z,12.63
2022-11-25T00:26:32.835Z,11.20
2022-11-25T00:29:02.910Z,11.50
2022-11-25T00:31:34.278Z,19.90
2022-11-25T00:34:03.322Z,10.70
2022-11-25T00:36:34.517Z,12.20
2022-11-25T00:39:06.118Z,11.33
2022-11-25T00:41:51.997Z,9.63
2022-11-25T00:44:38.038Z,12.20
2022-11-25T00:47:09.058Z,11.73
2022-11-25T00:49:39.427Z,11.00
2022-11-25T00:52:10.525Z,10.50
2022-11-25T00:54:39.392Z,10.80
2022-11-25T00:57:07.855Z,11.23
2022-11-25T00:59:36.048Z,10.37
2022-11-25T01:02:04.333Z,9.83
2022-11-25T01:04:32.676Z,12.47
2022-11-25T01:07:02.249Z,11.77
2022-11-25T01:09:32.365Z,10.90
2022-11-25T01:12:00.989Z,8.23
2022-11-25T01:14:29.406Z,9.13
2022-11-25T01:16:57.686Z,7.87
2022-11-25T01:19:26.248Z,10.10
2022-11-25T01:21:54.875Z,8.13
2022-11-25T01:24:24.144Z,10.23
2022-11-25T01:26:56.139Z,6.27
2022-11-25T01:29:24.682Z,6.47
2022-11-25T01:31:57.650Z,7.67
2022-11-25T01:34:27.206Z,7.07
2022-11-25T01:36:55.559Z,8.47
2022-11-25T01:39:32.041Z,8.30
2022-11-25T01:42:03.196Z,6.70
2022-11-25T01:44:32.980Z,7.77
2022-11-25T01:47:04.959Z,6.47
2022-11-25T01:49:41.575Z,9.13
2022-11-25T01:52:17.112Z,7.30
2022-11-25T01:54:51.161Z,6.77
2022-11-25T01:57:24.717Z,7.90
2022-11-25T01:59:55.845Z,5.87
2022-11-25T02:02:25.169Z,7.23
2022-11-25T02:04:54.533Z,6.00
2022-11-25T02:07:34.174Z,8.63
2022-11-25T02:10:05.030Z,5.73
2022-11-25T02:12:37.312Z,6.60
2022-11-25T02:15:07.495Z,4.80
2022-11-25T02:17:36.331Z,8.63
2022-11-25T02:20:08.305Z,8.47
2022-11-25T02:22:48.801Z,9.47
2022-11-25T02:25:22.046Z,5.70
2022-11-25T02:27:54.163Z,5.50
2022-11-25T02:30:23.058Z,6.30
2022-11-25T02:32:52.383Z,5.70
2022-11-25T02:35:34.450Z,6.47
2022-11-25T02:38:07.122Z,11.53
2022-11-25T02:40:43.566Z,7.50
2022-11-25T02:43:11.960Z,7.23
2022-11-25T02:45:57.796Z,6.83
2022-11-25T02:48:52.926Z,10.63
2022-11-25T02:51:18.386Z,6.30
2022-11-25T02:53:47.019Z,5.93
2022-11-25T02:56:17.839Z,7.17
2022-11-25T02:58:46.498Z,6.93
2022-11-25T03:01:14.822Z,6.13
2022-11-25T03:03:43.559Z,6.83
2022-11-25T03:06:12.172Z,5.23
2022-11-25T03:08:40.612Z,5.10
2022-11-25T03:11:09.420Z,7.57
2022-11-25T03:13:39.050Z,5.77
2022-11-25T03:16:07.902Z,7.70
2022-11-25T03:18:36.508Z,6.33
2022-11-25T03:21:05.179Z,6.90
2022-11-25T03:23:33.263Z,6.23
2022-11-25T03:26:01.302Z,5.33
2022-11-25T03:28:29.834Z,4.20
2022-11-25T03:30:59.287Z,4.43
2022-11-25T03:33:27.722Z,4.03
2022-11-25T03:35:56.341Z,7.33
2022-11-25T03:38:24.387Z,5.90
2022-11-25T03:40:52.449Z,6.03
2022-11-25T03:43:21.066Z,4.83
2022-11-25T03:45:50.452Z,4.23
2022-11-25T03:48:19.957Z,4.37
2022-11-25T03:50:50.021Z,4.40
2022-11-25T03:53:18.498Z,3.37
2022-11-25T03:55:49.391Z,5.10
2022-11-25T03:58:17.510Z,3.57
2022-11-25T04:00:45.967Z,6.33
2022-11-25T04:03:14.134Z,4.07
2022-11-25T04:05:43.997Z,5.23
2022-11-25T04:08:12.130Z,6.50
2022-11-25T04:10:40.194Z,6.63
2022-11-25T04:13:07.925Z,5.67
2022-11-25T04:15:36.383Z,8.20
2022-11-25T04:18:04.744Z,10.27
2022-11-25T04:20:32.968Z,5.23
2022-11-25T04:23:02.825Z,4.67
2022-11-25T04:25:31.355Z,6.40
2022-11-25T04:28:00.550Z,9.97
2022-11-25T04:30:28.762Z,6.83
2022-11-25T04:32:57.374Z,7.13
2022-11-25T04:35:25.962Z,6.63
2022-11-25T04:37:54.072Z,6.27
2022-11-25T04:40:23.715Z,6.50
2022-11-25T04:42:56.106Z,7.67
2022-11-25T04:45:33.364Z,7.63
2022-11-25T04:48:13.754Z,6.87
2022-11-25T04:50:42.347Z,7.27
2022-11-25T04:53:10.827Z,6.30
2022-11-25T04:55:40.987Z,7.37
2022-11-25T04:58:10.669Z,7.03
2022-11-25T05:00:37.808Z,8.10
2022-11-25T05:03:06.236Z,4.63
2022-11-25T05:05:34.358Z,4.60
2022-11-25T05:08:02.419Z,5.10
2022-11-25T05:10:31.514Z,8.00
2022-11-25T05:13:01.374Z,7.70
2022-11-25T05:15:29.426Z,5.67
2022-11-25T05:17:58.943Z,6.27
2022-11-25T05:20:27.434Z,8.23
2022-11-25T05:22:55.482Z,4.63
2022-11-25T05:25:25.064Z,13.00
2022-11-25T05:27:53.654Z,7.00
2022-11-25T05:30:23.092Z,5.90
2022-11-25T05:32:51.522Z,11.20
2022-11-25T05:35:20.066Z,8.93
2022-11-25T05:37:48.110Z,5.87
2022-11-25T05:40:17.291Z,6.73
2022-11-25T05:42:45.936Z,8.57
2022-11-25T05:45:14.036Z,5.70
2022-11-25T05:47:43.896Z,5.30
2022-11-25T05:50:12.215Z,8.93
2022-11-25T05:52:40.275Z,5.50
2022-11-25T05:55:10.178Z,6.27
2022-11-25T05:57:38.695Z,8.90
2022-11-25T06:00:08.095Z,8.40
2022-11-25T06:02:36.484Z,7.87
2022-11-25T06:05:07.554Z,6.87
2022-11-25T06:07:35.776Z,8.17
2022-11-25T06:10:04.161Z,9.27
2022-11-25T06:12:32.456Z,8.67
2022-11-25T06:15:00.550Z,6.10
2022-11-25T06:17:28.675Z,8.97
2022-11-25T06:19:56.823Z,7.27
2022-11-25T06:22:26.363Z,9.23
2022-11-25T06:25:00.335Z,7.83
2022-11-25T06:27:50.196Z,10.20
2022-11-25T06:30:19.365Z,6.27
2022-11-25T06:32:48.289Z,7.43
2022-11-25T06:35:16.544Z,13.43
2022-11-25T06:37:46.498Z,8.07
2022-11-25T06:40:16.487Z,7.97
2022-11-25T06:42:44.917Z,7.00
2022-11-25T06:45:13.467Z,6.63
2022-11-25T06:47:41.586Z,5.83
2022-11-25T06:50:10.263Z,8.17
2022-11-25T06:52:38.494Z,8.23
2022-11-25T06:55:08.830Z,6.87
2022-11-25T06:57:37.411Z,7.23
2022-11-25T07:00:06.772Z,5.87
2022-11-25T07:02:41.750Z,7.80
2022-11-25T07:05:12.795Z,6.87
2022-11-25T07:07:40.960Z,7.67
2022-11-25T07:10:11.390Z,12.27
2022-11-25T07:12:40.090Z,11.43
2022-11-25T07:15:09.107Z,6.03
2022-11-25T07:17:37.191Z,9.83
2022-11-25T07:20:06.247Z,11.10
2022-11-25T07:22:35.543Z,8.60
2022-11-25T07:25:04.046Z,6.80
2022-11-25T07:27:34.471Z,9.83
2022-11-25T07:30:54.473Z,10.03
2022-11-25T07:32:51.172Z,9.07
2022-11-25T07:35:19.803Z,8.07
2022-11-25T07:37:47.889Z,7.73
2022-11-25T07:40:16.583Z,6.40
2022-11-25T07:42:46.641Z,6.87
2022-11-25T07:45:14.780Z,6.53
2022-11-25T07:47:43.291Z,11.63
2022-11-25T07:50:11.866Z,7.80
2022-11-25T07:52:41.029Z,7.77
2022-11-25T07:55:10.423Z,8.10
2022-11-25T07:57:39.176Z,6.17
2022-11-25T08:00:10.251Z,8.97
2022-11-25T08:02:39.131Z,4.73
2022-11-25T08:05:08.363Z,7.63
2022-11-25T08:07:37.007Z,6.40
2022-11-25T08:10:05.963Z,6.47
2022-11-25T08:12:34.944Z,5.40
2022-11-25T08:15:03.051Z,8.60
2022-11-25T08:17:33.086Z,10.03
2022-11-25T08:20:01.184Z,6.00
2022-11-25T08:22:29.764Z,8.40
2022-11-25T08:24:58.368Z,11.83
2022-11-25T08:27:26.521Z,7.17
2022-11-25T08:29:54.891Z,8.90
2022-11-25T08:32:23.477Z,8.73
2022-11-25T08:34:52.984Z,7.27
2022-11-25T08:37:21.088Z,14.23
2022-11-25T08:39:53.240Z,7.40
2022-11-25T08:42:21.893Z,6.13
2022-11-25T08:44:54.130Z,6.90
2022-11-25T08:47:22.556Z,8.40
2022-11-25T08:49:53.825Z,7.37
2022-11-25T08:52:22.658Z,6.03
2022-11-25T08:54:51.118Z,6.37
2022-11-25T08:57:19.659Z,5.07
2022-11-25T08:59:48.323Z,5.70
2022-11-25T09:02:18.821Z,5.17
2022-11-25T09:04:47.433Z,6.67
2022-11-25T09:07:17.139Z,5.13
2022-11-25T09:09:45.625Z,7.37
2022-11-25T09:12:14.156Z,6.53
2022-11-25T09:14:42.776Z,5.63
2022-11-25T09:17:11.572Z,4.93
2022-11-25T09:19:40.173Z,4.70
2022-11-25T09:22:09.414Z,8.83
2022-11-25T09:24:38.927Z,7.67
2022-11-25T09:27:07.434Z,5.97
2022-11-25T09:29:36.116Z,6.83
2022-11-25T09:32:04.892Z,6.80
2022-11-25T09:34:33.040Z,4.47
2022-11-25T09:37:02.026Z,8.17
2022-11-25T09:39:31.000Z,7.30
2022-11-25T09:42:34.915Z,6.67
2022-11-25T09:45:32.675Z,6.07
2022-11-25T09:48:15.805Z,5.57
2022-11-25T09:50:56.968Z,6.57
2022-11-25T09:53:37.268Z,5.10
2022-11-25T09:56:11.089Z,8.43
2022-11-25T09:58:49.274Z,8.03
2022-11-25T10:01:21.145Z,5.23
2022-11-25T10:03:54.152Z,6.67
2022-11-25T10:06:28.388Z,5.90
2022-11-25T10:08:59.597Z,11.70
2022-11-25T10:11:43.224Z,7.30
2022-11-25T10:14:20.999Z,4.57
2022-11-25T10:16:52.344Z,4.73
2022-11-25T10:19:35.953Z,5.97
2022-11-25T10:22:18.695Z,6.50
2022-11-25T10:24:47.619Z,5.33
2022-11-25T10:27:20.387Z,5.03
2022-11-25T10:30:01.689Z,6.97
2022-11-25T10:32:37.909Z,6.40
2022-11-25T10:35:15.326Z,6.23
2022-11-25T10:37:46.829Z,6.23
2022-11-25T10:40:16.614Z,9.03
2022-11-25T10:42:45.196Z,8.57
2022-11-25T10:45:14.743Z,7.23
2022-11-25T10:48:03.998Z,6.27
2022-11-25T10:50:40.556Z,6.47
2022-11-25T10:53:15.298Z,11.30
2022-11-25T10:55:59.078Z,8.97
2022-11-25T10:58:33.092Z,7.40
2022-11-25T11:01:16.111Z,7.50
2022-11-25T11:03:46.155Z,8.03
2022-11-25T11:06:34.478Z,10.77
2022-11-25T11:09:02.770Z,7.50
2022-11-25T11:11:31.030Z,9.20
2022-11-25T11:14:13.666Z,9.27
2022-11-25T11:16:45.654Z,8.90
2022-11-25T11:19:25.190Z,8.93
2022-11-25T11:21:53.753Z,7.33
2022-11-25T11:24:29.447Z,8.43
2022-11-25T11:27:06.420Z,7.93
2022-11-25T11:29:35.746Z,9.63
2022-11-25T11:32:07.202Z,7.93
2022-11-25T11:34:51.103Z,10.73
2022-11-25T11:37:36.867Z,7.20
2022-11-25T11:40:23.527Z,7.97
2022-11-25T11:43:13.117Z,10.27
2022-11-25T11:45:56.739Z,10.97
2022-11-25T11:48:36.465Z,9.87
2022-11-25T11:51:18.316Z,8.03
2022-11-25T11:53:54.516Z,8.03
2022-11-25T11:56:35.692Z,8.17
2022-11-25T11:59:26.991Z,9.37
2022-11-25T12:02:12.157Z,7.63
2022-11-25T12:04:46.766Z,7.40
2022-11-25T12:07:21.646Z,7.63
2022-11-25T12:09:56.504Z,11.47
2022-11-25T12:12:34.032Z,6.57
2022-11-25T12:15:10.788Z,8.60
2022-11-25T12:17:45.605Z,8.70
2022-11-25T12:20:23.617Z,9.30
2022-11-25T12:22:59.217Z,9.53
2022-11-25T12:25:33.181Z,9.17
2022-11-25T12:28:06.657Z,13.77
2022-11-25T12:30:39.538Z,17.47
2022-11-25T12:33:14.201Z,9.73
2022-11-25T12:35:52.738Z,12.97
2022-11-25T12:38:31.678Z,14.50
2022-11-25T12:41:07.692Z,17.67
2022-11-25T12:43:42.460Z,20.70
2022-11-25T12:46:20.579Z,19.83
2022-11-25T12:48:48.684Z,15.50
2022-11-25T12:51:29.274Z,15.77
2022-11-25T12:54:06.930Z,12.97
2022-11-25T12:56:54.671Z,14.07
2022-11-25T12:59:47.444Z,14.10
2022-11-25T13:02:49.311Z,15.77
2022-11-25T13:06:02.511Z,16.47
2022-11-25T13:08:55.775Z,18.97
2022-11-25T13:11:54.907Z,13.67
2022-11-25T13:14:30.278Z,16.00
2022-11-25T13:17:00.223Z,14.97
2022-11-25T13:19:29.033Z,13.70
2022-11-25T13:22:02.759Z,17.53
2022-11-25T13:24:41.528Z,12.23
2022-11-25T13:27:32.273Z,9.90
2022-11-25T13:30:05.183Z,13.57
2022-11-25T13:32:36.629Z,14.50
2022-11-25T13:35:39.152Z,13.43
2022-11-25T13:38:48.906Z,30.03
2022-11-25T13:41:34.723Z,21.57
2022-11-25T13:44:07.589Z,13.10
2022-11-25T13:46:40.761Z,12.17
2022-11-25T13:49:23.856Z,18.70
2022-11-25T13:51:54.247Z,16.17
2022-11-25T13:54:27.159Z,15.20
2022-11-25T13:57:25.182Z,19.07
2022-11-25T13:59:59.270Z,14.97
2022-11-25T14:02:49.822Z,16.13
2022-11-25T14:05:44.006Z,14.63
2022-11-25T14:08:21.095Z,16.37
2022-11-25T14:11:01.140Z,11.87
2022-11-25T14:13:51.907Z,11.03
2022-11-25T14:16:45.422Z,15.20
2022-11-25T14:19:51.078Z,11.37
2022-11-25T14:22:43.994Z,12.63
2022-11-25T14:25:20.646Z,14.37
2022-11-25T14:27:52.071Z,13.13
2022-11-25T14:30:21.757Z,18.80
2022-11-25T14:32:58.880Z,11.47
2022-11-25T14:35:31.457Z,17.03
2022-11-25T14:38:04.791Z,18.43
2022-11-25T14:40:37.520Z,14.50
2022-11-25T14:43:09.307Z,15.40
2022-11-25T14:45:39.019Z,22.50
2022-11-25T14:48:17.829Z,15.87
2022-11-25T14:50:59.560Z,17.63
2022-11-25T14:53:30.772Z,17.53
2022-11-25T14:56:00.819Z,15.47
2022-11-25T14:58:29.420Z,18.97
2022-11-25T15:01:06.920Z,20.90
2022-11-25T15:03:35.293Z,15.13
2022-11-25T15:06:06.177Z,18.80
2022-11-25T15:08:41.484Z,19.90
2022-11-25T15:11:15.291Z,19.63
2022-11-25T15:13:45.561Z,20.43
2022-11-25T15:16:17.737Z,16.77
2022-11-25T15:18:50.690Z,15.20
2022-11-25T15:21:23.006Z,19.77
2022-11-25T15:23:52.922Z,18.90
2022-11-25T15:26:23.251Z,19.60
2022-11-25T15:28:56.805Z,22.37
2022-11-25T15:31:31.376Z,22.30
2022-11-25T15:34:03.200Z,26.40
2022-11-25T15:36:31.573Z,23.90
2022-11-25T15:39:15.919Z,33.57
2022-11-25T15:41:46.331Z,26.17
2022-11-25T15:44:25.127Z,30.57
2022-11-25T15:47:05.104Z,28.30
2022-11-25T15:49:35.845Z,26.67
2022-11-25T15:52:08.466Z,30.20
2022-11-25T15:54:42.749Z,25.87
2022-11-25T15:57:18.909Z,26.10
2022-11-25T15:59:50.587Z,28.47
2022-11-25T16:02:50.965Z,23.43
2022-11-25T16:05:32.125Z,28.30
2022-11-25T16:08:03.350Z,25.30
2022-11-25T16:10:34.462Z,32.57
2022-11-25T16:13:33.315Z,29.43
2022-11-25T16:16:11.888Z,41.37
2022-11-25T16:18:44.315Z,27.07
2022-11-25T16:21:14.912Z,30.80
2022-11-25T16:23:46.749Z,30.97
2022-11-25T16:26:17.900Z,30.20
2022-11-25T16:28:53.336Z,29.40
2022-11-25T16:31:22.144Z,33.47
2022-11-25T16:33:53.903Z,39.13
2022-11-25T16:36:22.583Z,31.70
2022-11-25T16:38:54.502Z,39.90
2022-11-25T16:41:25.446Z,36.67
2022-11-25T16:43:57.108Z,33.43
2022-11-25T16:46:28.698Z,27.77
2022-11-25T16:48:58.212Z,38.97
2022-11-25T16:51:26.442Z,32.13
2022-11-25T16:53:55.157Z,33.33
2022-11-25T16:56:27.795Z,31.20
2022-11-25T16:58:56.936Z,33.43
2022-11-25T17:01:28.430Z,35.80
2022-11-25T17:03:58.953Z,38.00
2022-11-25T17:06:29.964Z,30.60
2022-11-25T17:08:58.140Z,30.03
2022-11-25T17:11:30.869Z,32.63
2022-11-25T17:14:02.115Z,55.50
2022-11-25T17:16:32.240Z,46.33
2022-11-25T17:19:03.779Z,36.37
2022-11-25T17:21:32.165Z,36.80
2022-11-25T17:24:03.272Z,29.17
2022-11-25T17:26:38.251Z,38.20
2022-11-25T17:29:10.178Z,31.37
2022-11-25T17:31:39.777Z,34.47
2022-11-25T17:34:14.436Z,29.60
2022-11-25T17:36:43.803Z,30.80
2022-11-25T17:39:13.626Z,30.13
2022-11-25T17:41:46.197Z,31.87
2022-11-25T17:44:23.387Z,33.10
2022-11-25T17:46:53.880Z,35.43
2022-11-25T17:49:23.957Z,39.27
2022-11-25T17:51:52.951Z,33.20
2022-11-25T17:54:23.700Z,28.63
2022-11-25T17:56:52.641Z,36.63
2022-11-25T17:59:26.336Z,35.03
2022-11-25T18:01:56.005Z,41.63
2022-11-25T18:04:28.138Z,32.77
2022-11-25T18:06:56.154Z,35.63
2022-11-25T18:09:24.746Z,37.53
2022-11-25T18:11:57.792Z,31.07
2022-11-25T18:14:28.383Z,36.13
2022-11-25T18:16:57.402Z,40.67
2022-11-25T18:19:27.755Z,40.63
2022-11-25T18:22:01.488Z,39.80
2022-11-25T18:24:29.900Z,39.67
2022-11-25T18:26:58.653Z,37.97
2022-11-25T18:29:28.192Z,34.27
2022-11-25T18:32:00.835Z,34.33
2022-11-25T18:34:30.283Z,34.67
2022-11-25T18:36:58.512Z,35.47
2022-11-25T18:39:26.955Z,36.20
2022-11-25T18:41:58.218Z,32.30
2022-11-25T18:44:29.179Z,32.80
2022-11-25T18:46:57.368Z,43.20
2022-11-25T18:49:25.483Z,31.60
2022-11-25T18:51:55.436Z,32.17
2022-11-25T18:54:23.572Z,34.70
2022-11-25T18:56:52.873Z,28.27
2022-11-25T18:59:29.027Z,40.00
2022-11-25T19:01:57.216Z,29.83
2022-11-25T19:04:25.450Z,34.10
2022-11-25T19:06:55.208Z,31.53
2022-11-25T19:09:23.300Z,38.10
2022-11-25T19:11:56.906Z,32.90
2022-11-25T19:14:31.082Z,36.83
2022-11-25T19:17:04.453Z,35.60
2022-11-25T19:19:33.341Z,40.77
2022-11-25T19:22:02.794Z,42.23
2022-11-25T19:24:30.935Z,54.87
2022-11-25T19:26:59.379Z,39.37
2022-11-25T19:29:37.516Z,38.57
2022-11-25T19:32:19.131Z,43.97
2022-11-25T19:34:52.075Z,46.10
2022-11-25T19:37:23.243Z,49.00
2022-11-25T19:39:52.961Z,39.50
2022-11-25T19:42:21.360Z,43.30
2022-11-25T19:44:49.521Z,48.47
2022-11-25T19:47:23.171Z,45.53
2022-11-25T19:49:53.584Z,39.17
2022-11-25T19:52:26.863Z,46.47
2022-11-25T19:54:55.349Z,40.20
2022-11-25T19:57:24.883Z,48.57
2022-11-25T19:59:53.583Z,48.70
2022-11-25T20:02:24.281Z,48.23
2022-11-25T20:04:57.895Z,42.93
2022-11-25T20:07:30.075Z,38.47
2022-11-25T20:10:04.803Z,42.00
2022-11-25T20:12:32.842Z,39.50
2022-11-25T20:15:01.027Z,43.47
2022-11-25T20:17:32.565Z,41.50
2022-11-25T20:20:07.296Z,40.10
2022-11-25T20:22:39.638Z,39.63
2022-11-25T20:25:10.654Z,46.67
2022-11-25T20:27:38.945Z,44.37
2022-11-25T20:30:19.130Z,47.40
2022-11-25T20:32:47.818Z,46.93
2022-11-25T20:35:16.090Z,57.13
2022-11-25T20:37:54.267Z,52.83
2022-11-25T20:40:24.737Z,51.47
2022-11-25T20:42:54.809Z,50.97
2022-11-25T20:45:24.789Z,51.17
2022-11-25T20:47:53.008Z,59.27
2022-11-25T20:50:23.880Z,47.17
2022-11-25T20:52:53.791Z,49.60
2022-11-25T20:55:24.614Z,49.97
2022-11-25T20:57:54.005Z,44.70
2022-11-25T21:00:24.183Z,54.77
2022-11-25T21:02:53.025Z,49.07
2022-11-25T21:05:23.522Z,54.10
2022-11-25T21:07:53.871Z,54.57
2022-11-25T21:10:25.813Z,60.57
2022-11-25T21:12:54.676Z,56.10
2022-11-25T21:15:25.855Z,52.97
2022-11-25T21:17:54.127Z,54.90
2022-11-25T21:20:22.764Z,50.50
2022-11-25T21:22:57.878Z,51.63
2022-11-25T21:25:26.539Z,50.17
2022-11-25T21:27:55.039Z,52.87
2022-11-25T21:30:26.884Z,58.77
2022-11-25T21:32:56.668Z,53.27
2022-11-25T21:35:30.064Z,62.53
2022-11-25T21:38:02.487Z,56.13
2022-11-25T21:40:35.534Z,56.17
2022-11-25T21:43:05.050Z,46.17
2022-11-25T21:45:33.504Z,47.53
2022-11-25T21:48:01.628Z,51.37
2022-11-25T21:50:30.133Z,53.67
2022-11-25T21:53:00.980Z,55.97
2022-11-25T21:55:29.190Z,51.53
2022-11-25T21:57:57.668Z,59.97
2022-11-25T22:00:26.955Z,56.17
2022-11-25T22:02:55.341Z,59.00
2022-11-25T22:05:26.706Z,52.33
2022-11-25T22:07:55.237Z,58.10
2022-11-25T22:10:25.871Z,53.53
2022-11-25T22:12:54.087Z,46.57
2022-11-25T22:15:23.945Z,45.87
2022-11-25T22:17:56.936Z,55.83
2022-11-25T22:20:30.543Z,50.47
2022-11-25T22:22:58.963Z,53.53
2022-11-25T22:25:30.413Z,47.97
2022-11-25T22:27:58.630Z,47.63
2022-11-25T22:30:27.236Z,50.00
2022-11-25T22:33:01.593Z,49.93
2022-11-25T22:35:30.581Z,52.53
2022-11-25T22:37:58.654Z,54.07
2022-11-25T22:40:28.284Z,55.80
2022-11-25T22:42:57.535Z,63.97
2022-11-25T22:45:31.782Z,56.73
2022-11-25T22:48:04.389Z,54.90
2022-11-25T22:50:34.471Z,61.67
2022-11-25T22:53:03.062Z,66.83
2022-11-25T22:55:34.586Z,61.57
2022-11-25T22:58:04.577Z,76.37
2022-11-25T23:00:35.051Z,71.27
2022-11-25T23:03:06.912Z,68.70
2022-11-25T23:05:37.479Z,71.50
2022-11-25T23:08:14.930Z,66.33
2022-11-25T23:10:44.968Z,64.47
2022-11-25T23:13:14.541Z,62.57
2022-11-25T23:15:48.892Z,56.67
2022-11-25T23:18:21.864Z,66.20
2022-11-25T23:20:52.594Z,56.47
2022-11-25T23:23:22.650Z,51.63
2022-11-25T23:25:52.382Z,71.37
2022-11-25T23:28:21.205Z,65.20
2022-11-25T23:30:51.646Z,62.87
2022-11-25T23:33:27.926Z,61.20
2022-11-25T23:35:56.240Z,51.37
2022-11-25T23:38:26.588Z,55.27
2022-11-25T23:40:56.499Z,54.73
2022-11-25T23:43:24.551Z,54.40
2022-11-25T23:45:55.327Z,58.57
2022-11-25T23:48:31.567Z,52.13
2022-11-25T23:51:01.390Z,50.93
2022-11-25T23:53:31.993Z,52.23
2022-11-25T23:56:01.574Z,50.63
2022-11-25T23:58:29.984Z,52.53
